地図

経路データ

SID SEASON NUMBER BASIN SUBBASIN NAME ISO_TIME NATURE LAT LON WMO_WIND WMO_PRES WMO_AGENCY TRACK_TYPE DIST2LAND LANDFALL IFLAG USA_AGENCY USA_ATCF_ID USA_LAT USA_LON USA_RECORD USA_STATUS USA_WIND USA_PRES USA_SSHS USA_R34_NE USA_R34_SE USA_R34_SW USA_R34_NW USA_R50_NE USA_R50_SE USA_R50_SW USA_R50_NW USA_R64_NE USA_R64_SE USA_R64_SW USA_R64_NW USA_POCI USA_ROCI USA_RMW USA_EYE TOKYO_LAT TOKYO_LON TOKYO_GRADE TOKYO_WIND TOKYO_PRES TOKYO_R50_DIR TOKYO_R50_LONG TOKYO_R50_SHORT TOKYO_R30_DIR TOKYO_R30_LONG TOKYO_R30_SHORT TOKYO_LAND CMA_LAT CMA_LON CMA_CAT CMA_WIND CMA_PRES HKO_LAT HKO_LON HKO_CAT HKO_WIND HKO_PRES NEWDELHI_LAT NEWDELHI_LON NEWDELHI_GRADE NEWDELHI_WIND NEWDELHI_PRES NEWDELHI_CI NEWDELHI_DP NEWDELHI_POCI REUNION_LAT REUNION_LON REUNION_TYPE REUNION_WIND REUNION_PRES REUNION_TNUM REUNION_CI REUNION_RMW REUNION_R34_NE REUNION_R34_SE REUNION_R34_SW REUNION_R34_NW REUNION_R50_NE REUNION_R50_SE REUNION_R50_SW REUNION_R50_NW REUNION_R64_NE REUNION_R64_SE REUNION_R64_SW REUNION_R64_NW BOM_LAT BOM_LON BOM_TYPE BOM_WIND BOM_PRES BOM_TNUM BOM_CI BOM_RMW BOM_R34_NE BOM_R34_SE BOM_R34_SW BOM_R34_NW BOM_R50_NE BOM_R50_SE BOM_R50_SW BOM_R50_NW BOM_R64_NE BOM_R64_SE BOM_R64_SW BOM_R64_NW BOM_ROCI BOM_POCI BOM_EYE BOM_POS_METHOD BOM_PRES_METHOD NADI_LAT NADI_LON NADI_CAT NADI_WIND NADI_PRES WELLINGTON_LAT WELLINGTON_LON WELLINGTON_WIND WELLINGTON_PRES DS824_LAT DS824_LON DS824_STAGE DS824_WIND DS824_PRES TD9636_LAT TD9636_LON TD9636_STAGE TD9636_WIND TD9636_PRES TD9635_LAT TD9635_LON TD9635_WIND TD9635_PRES TD9635_ROCI NEUMANN_LAT NEUMANN_LON NEUMANN_CLASS NEUMANN_WIND NEUMANN_PRES MLC_LAT MLC_LON MLC_CLASS MLC_WIND MLC_PRES USA_GUST BOM_GUST BOM_GUST_PER REUNION_GUST REUNION_GUST_PER USA_SEAHGT USA_SEARAD_NE USA_SEARAD_SE USA_SEARAD_SW USA_SEARAD_NW STORM_SPEED STORM_DIR
1892199N16114 1892 26 WP MM NOT_NAMED 1892-07-17 04:00:00 NR 16.2000 114.000 main 471 463 __________O___ -1 16.2000 114.000 7 3 287
1892199N16114 1892 26 WP MM NOT_NAMED 1892-07-17 06:00:00 NR 16.2254 113.905 main 463 447 __________P___ -1 16.2254 113.905 7 3 285
1892199N16114 1892 26 WP MM NOT_NAMED 1892-07-17 09:00:00 NR 16.2601 113.767 main 447 431 __________P___ -1 16.2601 113.767 7 3 284
1892199N16114 1892 26 WP MM NOT_NAMED 1892-07-17 12:00:00 NR 16.2865 113.640 main 431 423 __________P___ -1 16.2865 113.640 7 2 280
1892199N16114 1892 26 WP MM NOT_NAMED 1892-07-17 15:00:00 NR 16.2995 113.531 main 423 423 __________P___ -1 16.2995 113.531 7 2 276
1892199N16114 1892 26 WP MM NOT_NAMED 1892-07-17 16:00:00 NR 16.3000 113.500 main 423 415 __________O___ -1 16.3000 113.500 7 2 267
1892199N16114 1892 26 WP MM NOT_NAMED 1892-07-17 18:00:00 NR 16.2956 113.447 main 415 415 __________P___ -1 16.2956 113.447 7 1 264
1892199N16114 1892 26 WP MM NOT_NAMED 1892-07-17 21:00:00 NR 16.2887 113.386 main 415 407 __________P___ -1 16.2887 113.386 7 1 275
1892199N16114 1892 26 WP MM NOT_NAMED 1892-07-18 00:00:00 NR 16.3034 113.342 main 407 400 __________P___ -1 16.3034 113.342 7 1 317
1892199N16114 1892 26 WP MM NOT_NAMED 1892-07-18 03:00:00 NR 16.3648 113.310 main 400 400 __________P___ -1 16.3648 113.310 7 2 337
1892199N16114 1892 26 WP MM NOT_NAMED 1892-07-18 04:00:00 NR 16.4000 113.300 main 400 392 __________O___ -1 16.4000 113.300 7 3 344
1892199N16114 1892 26 WP MM NOT_NAMED 1892-07-18 06:00:00 NR 16.5069 113.262 main 392 370 __________P___ -1 16.5069 113.262 7 4 344
1892199N16114 1892 26 WP MM NOT_NAMED 1892-07-18 09:00:00 NR 16.7178 113.211 main 370 349 __________P___ -1 16.7178 113.211 7 5 350
1892199N16114 1892 26 WP MM NOT_NAMED 1892-07-18 12:00:00 NR 16.9644 113.181 main 349 337 __________P___ -1 16.9644 113.181 7 5 0
1892199N16114 1892 26 WP MM NOT_NAMED 1892-07-18 15:00:00 NR 17.2185 113.187 main 337 331 __________P___ -1 17.2185 113.187 7 5 2
1892199N16114 1892 26 WP MM NOT_NAMED 1892-07-18 16:00:00 NR 17.3000 113.200 main 331 325 __________O___ -1 17.3000 113.200 7 4 13
1892199N16114 1892 26 WP MM NOT_NAMED 1892-07-18 18:00:00 NR 17.4259 113.239 main 325 324 __________P___ -1 17.4259 113.239 7 4 22
1892199N16114 1892 26 WP MM NOT_NAMED 1892-07-18 21:00:00 NR 17.6081 113.334 main 324 323 __________P___ -1 17.6081 113.334 7 4 31
1892199N16114 1892 26 WP MM NOT_NAMED 1892-07-19 00:00:00 NR 17.7992 113.469 main 331 324 __________P___ -1 17.7992 113.469 7 5 35
1892199N16114 1892 26 WP MM NOT_NAMED 1892-07-19 03:00:00 NR 18.0178 113.638 main 327 327 __________P___ -1 18.0178 113.638 7 6 36
1892199N16114 1892 26 WP MM NOT_NAMED 1892-07-19 04:00:00 NR 18.1000 113.700 main 329 324 __________O___ -1 18.1000 113.700 3 6 35
1892199N16114 1892 26 WP MM NOT_NAMED 1892-07-19 06:00:00 NR 18.2803 113.830 main 328 328 __________P___ -1 18.2803 113.830 3 7 34
1892199N16114 1892 26 WP MM NOT_NAMED 1892-07-19 09:00:00 NR 18.5821 114.050 main 334 340 __________P___ -1 18.5821 114.050 3 8 34
1892199N16114 1892 26 WP MM NOT_NAMED 1892-07-19 12:00:00 NR 18.9159 114.286 main 355 330 __________P___ -1 18.9159 114.286 3 8 33
1892199N16114 1892 26 WP MM NOT_NAMED 1892-07-19 15:00:00 NR 19.2755 114.523 main 330 325 __________P___ -1 19.2755 114.523 3 9 32
1892199N16114 1892 26 WP MM NOT_NAMED 1892-07-19 16:00:00 NR 19.4000 114.600 main 325 293 __________O___ -1 19.4000 114.600 4 9 27
1892199N16114 1892 26 WP MM NOT_NAMED 1892-07-19 18:00:00 NR 19.6546 114.724 main 293 253 __________P___ -1 19.6546 114.724 4 9 24
1892199N16114 1892 26 WP MM NOT_NAMED 1892-07-19 21:00:00 NR 20.0555 114.902 main 253 217 __________P___ -1 20.0555 114.902 4 9 23
1892199N16114 1892 26 WP MM NOT_NAMED 1892-07-20 00:00:00 NR 20.4657 115.092 main 217 183 __________P___ -1 20.4657 115.092 4 9 25
1892199N16114 1892 26 WP MM NOT_NAMED 1892-07-20 03:00:00 NR 20.8695 115.315 main 183 175 __________P___ -1 20.8695 115.315 4 9 28
1892199N16114 1892 26 WP MM NOT_NAMED 1892-07-20 04:00:00 NR 21.0000 115.400 main 175 157 __________O___ -1 21.0000 115.400 4 9 34
1892199N16114 1892 26 WP MM NOT_NAMED 1892-07-20 06:00:00 NR 21.2499 115.589 main 162 123 __________P___ -1 21.2499 115.589 4 9 38
1892199N16114 1892 26 WP MM NOT_NAMED 1892-07-20 09:00:00 NR 21.6123 115.909 main 123 91 __________P___ -1 21.6123 115.909 4 10 42
1892199N16114 1892 26 WP MM NOT_NAMED 1892-07-20 12:00:00 NR 21.9597 116.270 main 91 67 __________P___ -1 21.9597 116.270 4 10 46
1892199N16114 1892 26 WP MM NOT_NAMED 1892-07-20 15:00:00 NR 22.2924 116.663 main 70 63 __________P___ -1 22.2924 116.663 4 10 48
1892199N16114 1892 26 WP MM NOT_NAMED 1892-07-20 16:00:00 NR 22.4000 116.800 main 63 60 __________O___ -1 22.4000 116.800 4 11 47
1892199N16114 1892 26 WP MM NOT_NAMED 1892-07-20 18:00:00 NR 22.6588 117.084 main 65 63 __________P___ -1 22.6588 117.084 4 11 47
1892199N16114 1892 26 WP MM NOT_NAMED 1892-07-20 21:00:00 NR 23.0353 117.536 main 69 49 __________P___ -1 23.0353 117.536 4 11 51
1892199N16114 1892 26 WP MM NOT_NAMED 1892-07-21 00:00:00 NR 23.3533 118.000 main 52 52 __________P___ -1 23.3533 118.000 4 10 58
1892199N16114 1892 26 WP MM NOT_NAMED 1892-07-21 03:00:00 NR 23.5629 118.455 main 75 75 __________P___ -1 23.5629 118.455 4 9 66
1892199N16114 1892 26 WP MM NOT_NAMED 1892-07-21 04:00:00 NR 23.6000 118.600 main 84 84 __________O___ -1 23.6000 118.600 4 8 84
1892199N16114 1892 26 WP MM NOT_NAMED 1892-07-21 06:00:00 NR 23.6024 118.868 main 105 82 __________P___ -1 23.6024 118.868 4 7 100
1892199N16114 1892 26 WP MM NOT_NAMED 1892-07-21 09:00:00 NR 23.4927 119.251 main 82 52 __________P___ -1 23.4927 119.251 4 8 114
1892199N16114 1892 26 WP MM NOT_NAMED 1892-07-21 12:00:00 NR 23.2972 119.618 main 52 10 __________P___ -1 23.2972 119.618 4 8 122
1892199N16114 1892 26 WP MM NOT_NAMED 1892-07-21 15:00:00 NR 23.0720 119.979 main 10 10 __________P___ -1 23.0720 119.979 4 8 124
1892199N16114 1892 26 WP MM NOT_NAMED 1892-07-21 16:00:00 NR 23.0000 120.100 main 10 0 __________O___ -1 23.0000 120.100 4 8 120
1892199N16114 1892 26 WP MM NOT_NAMED 1892-07-21 18:00:00 NR 22.8786 120.337 main 0 0 __________P___ -1 22.8786 120.337 4 8 119
1892199N16114 1892 26 WP MM NOT_NAMED 1892-07-21 21:00:00 NR 22.6962 120.693 main 0 0 __________P___ -1 22.6962 120.693 4 8 117
1892199N16114 1892 26 WP MM NOT_NAMED 1892-07-22 00:00:00 NR 22.5359 121.061 main 15 15 __________P___ -1 22.5359 121.061 4 8 111
1892199N16114 1892 26 WP MM NOT_NAMED 1892-07-22 03:00:00 NR 22.4229 121.458 main 56 56 __________P___ -1 22.4229 121.458 4 8 105
1892199N16114 1892 26 WP MM NOT_NAMED 1892-07-22 04:00:00 NR 22.4000 121.600 main 65 65 __________O___ -1 22.4000 121.600 7 8 95
1892199N16114 1892 26 WP MM NOT_NAMED 1892-07-22 06:00:00 NR 22.3852 121.910 main 90 90 __________P___ -1 22.3852 121.910 7 9 89
1892199N16114 1892 26 WP MM NOT_NAMED 1892-07-22 09:00:00 NR 22.4133 122.406 main 128 128 __________P___ -1 22.4133 122.406 7 9 84
1892199N16114 1892 26 WP MM NOT_NAMED 1892-07-22 12:00:00 NR 22.4822 122.921 main 167 177 __________P___ -1 22.4822 122.921 7 10 81
1892199N16114 1892 26 WP MM NOT_NAMED 1892-07-22 15:00:00 NR 22.5702 123.434 main 212 222 __________P___ -1 22.5702 123.434 7 10 79
1892199N16114 1892 26 WP MM NOT_NAMED 1892-07-22 16:00:00 NR 22.6000 123.600 main 232 232 __________O___ -1 22.6000 123.600 7 9 83
1892199N16114 1892 26 WP MM NOT_NAMED 1892-07-22 18:00:00 NR 22.6231 123.922 main 262 262 __________P___ -1 22.6231 123.922 7 9 85
1892199N16114 1892 26 WP MM NOT_NAMED 1892-07-22 21:00:00 NR 22.6638 124.393 main 310 310 __________P___ -1 22.6638 124.393 7 9 83
1892199N16114 1892 26 WP MM NOT_NAMED 1892-07-23 00:00:00 NR 22.7311 124.843 main 350 359 __________P___ -1 22.7311 124.843 7 8 77
1892199N16114 1892 26 WP MM NOT_NAMED 1892-07-23 03:00:00 NR 22.8469 125.266 main 394 389 __________P___ -1 22.8469 125.266 7 8 72
1892199N16114 1892 26 WP MM NOT_NAMED 1892-07-23 04:00:00 NR 22.9000 125.400 main 398 398 __________O___ -1 22.9000 125.400 7 8 66
1892199N16114 1892 26 WP MM NOT_NAMED 1892-07-23 06:00:00 NR 23.0139 125.677 main 421 421 __________P___ -1 23.0139 125.677 7 8 61
1892199N16114 1892 26 WP MM NOT_NAMED 1892-07-23 09:00:00 NR 23.2349 126.068 main 450 447 __________P___ -1 23.2349 126.068 7 8 53
1892199N16114 1892 26 WP MM NOT_NAMED 1892-07-23 12:00:00 NR 23.5188 126.418 main 470 470 __________P___ -1 23.5188 126.418 7 9 43
1892199N16114 1892 26 WP MM NOT_NAMED 1892-07-23 15:00:00 NR 23.8683 126.715 main 491 491 __________P___ -1 23.8683 126.715 7 9 36
1892199N16114 1892 26 WP MM NOT_NAMED 1892-07-23 16:00:00 NR 24.0000 126.800 main 498 495 __________O___ -1 24.0000 126.800 7 10 30
1892199N16114 1892 26 WP MM NOT_NAMED 1892-07-23 18:00:00 NR 24.2922 126.982 main 510 509 __________P___ -1 24.2922 126.982 7 10 25
1892199N16114 1892 26 WP MM NOT_NAMED 1892-07-23 21:00:00 NR 24.7876 127.205 main 524 523 __________P___ -1 24.7876 127.205 7 11 18
1892199N16114 1892 26 WP MM NOT_NAMED 1892-07-24 00:00:00 NR 25.3156 127.353 main 544 544 __________P___ -1 25.3156 127.353 7 11 10
1892199N16114 1892 26 WP MM NOT_NAMED 1892-07-24 03:00:00 NR 25.8355 127.406 main 549 550 __________P___ -1 25.8355 127.406 7 10 3
1892199N16114 1892 26 WP MM NOT_NAMED 1892-07-24 04:00:00 NR 26.0000 127.400 main 552 552 __________O___ -1 26.0000 127.400 7 9 355
1892199N16114 1892 26 WP MM NOT_NAMED 1892-07-24 06:00:00 NR 26.2868 127.353 main 559 549 __________P___ -1 26.2868 127.353 7 9 345
1892199N16114 1892 26 WP MM NOT_NAMED 1892-07-24 09:00:00 NR 26.6919 127.193 main 553 542 __________P___ -1 26.6919 127.193 7 9 336
1892199N16114 1892 26 WP MM NOT_NAMED 1892-07-24 12:00:00 NR 27.0806 126.959 main 542 497 __________P___ -1 27.0806 126.959 7 9 330
1892199N16114 1892 26 WP MM NOT_NAMED 1892-07-24 15:00:00 NR 27.4683 126.691 main 497 483 __________P___ -1 27.4683 126.691 7 9 329
1892199N16114 1892 26 WP MM NOT_NAMED 1892-07-24 16:00:00 NR 27.6000 126.600 main 483 453 __________O___ -1 27.6000 126.600 7 9 329
1892199N16114 1892 26 WP MM NOT_NAMED 1892-07-24 18:00:00 NR 27.8698 126.423 main 453 421 __________P___ -1 27.8698 126.423 7 9 331
1892199N16114 1892 26 WP MM NOT_NAMED 1892-07-24 21:00:00 NR 28.2879 126.169 main 421 383 __________P___ -1 28.2879 126.169 7 10 333
1892199N16114 1892 26 WP MM NOT_NAMED 1892-07-25 00:00:00 NR 28.7177 125.923 main 383 358 __________P___ -1 28.7177 125.923 7 10 334
1892199N16114 1892 26 WP MM NOT_NAMED 1892-07-25 03:00:00 NR 29.1540 125.681 main 358 348 __________P___ -1 29.1540 125.681 7 10 334
1892199N16114 1892 26 WP MM NOT_NAMED 1892-07-25 04:00:00 NR 29.3000 125.600 main 348 __________O___ -1 29.3000 125.600 3 10 333

デジタル台風データ・検索

IBTrACS Databaseについて

本データベースは、米国NOAAが公開する1842年以降の世界の熱帯低気圧のベストトラックデータアーカイブInternational Best Track Archive for Climate Stewardship (IBTrACS)を、ウェブで閲覧しやすい形式に変換したものです。

最終更新日:2021-11-26